Time;durP1;ratioP1;P1;durP2;ratioP2;P2;SDS_P1;SDS_P2;PMS_P1;PMS_P2;Temp;Humidity;BMP_temperature;BMP_pressure;BME280_temperature;BME280_humidity;BME280_pressure;Samples;Min_cycle;Max_cycle;Signal;HPM_P1;HPM_P2
2022/07/15 00:00:34;;;;;;;;;;;;;;;;;;10420523;28;19930;-66
2022/07/15 00:05:36;;;;;;;;;;;;;;;;;;10403055;28;19925;-66
2022/07/15 00:10:38;;;;;;;;;;;;;;;;;;10420274;28;19931;-65
2022/07/15 00:15:40;;;;;;;;;;;;;;;;;;10419284;28;19929;-65
2022/07/15 00:20:43;;;;;;;;;;;;;;;;;;10419953;28;19929;-65
2022/07/15 00:25:47;;;;;;;;;;;;;;;;;;10418522;28;20019;-66
2022/07/15 00:30:49;;;;;;;;;;;;;;;;;;10419485;28;19925;-65
2022/07/15 00:35:52;;;;;;;;;;;;;;;;;;10418530;28;19932;-65
2022/07/15 00:40:54;;;;;;;;;;;;;;;;;;10419190;28;19935;-65
2022/07/15 00:45:56;;;;;;;;;;;;;;;;;;10418971;28;19940;-66
2022/07/15 00:50:58;;;;;;;;;;;;;;;;;;10417878;28;19983;-65
2022/07/15 00:56:00;;;;;;;;;;;;;;;;;;10418364;28;20376;-65
2022/07/15 01:01:02;;;;;;;;;;;;;;;;;;10417762;28;19925;-65
2022/07/15 01:06:04;;;;;;;;;;;;;;;;;;10418196;28;19929;-65
2022/07/15 01:11:06;;;;;;;;;;;;;;;;;;10417761;28;19932;-66
2022/07/15 01:16:09;;;;;;;;;;;;;;;;;;10416996;28;20347;-65
2022/07/15 01:21:11;;;;;;;;;;;;;;;;;;10417375;28;19925;-65
2022/07/15 01:26:14;;;;;;;;;;;;;;;;;;10417403;28;19932;-65
2022/07/15 01:31:16;;;;;;;;;;;;;;;;;;10417168;28;19931;-65
2022/07/15 01:36:18;;;;;;;;;;;;;;;;;;10415156;28;19925;-66
2022/07/15 01:41:22;;;;;;;;;;;;;;;;;;10398582;28;19934;-65
2022/07/15 01:46:24;;;;;;;;;;;;;;;;;;10415822;28;20383;-66
2022/07/15 01:51:26;;;;;;;;;;;;;;;;;;10416301;28;19925;-65
2022/07/15 01:56:28;;;;;;;;;;;;;;;;;;10416614;28;19932;-65
2022/07/15 02:01:30;;;;;;;;;;;;;;;;;;10415711;28;19925;-66
2022/07/15 02:06:32;;;;;;;;;;;;;;;;;;10416155;28;19925;-65
2022/07/15 02:11:34;;;;;;;;;;;;;;;;;;10415856;28;19929;-65
2022/07/15 02:16:36;;;;;;;;;;;;;;;;;;10415297;28;19925;-66
2022/07/15 02:21:39;;;;;;;;;;;;;;;;;;10415657;28;19960;-65
2022/07/15 02:26:41;;;;;;;;;;;;;;;;;;10415764;28;19932;-65
2022/07/15 02:31:43;;;;;;;;;;;;;;;;;;10398100;28;19933;-65
2022/07/15 02:36:45;;;;;;;;;;;;;;;;;;10415389;28;19939;-65
2022/07/15 02:41:47;;;;;;;;;;;;;;;;;;10415580;28;19933;-65
2022/07/15 02:46:49;;;;;;;;;;;;;;;;;;10415505;28;19925;-65
2022/07/15 02:51:51;;;;;;;;;;;;;;;;;;10422550;28;20383;-66
2022/07/15 02:56:53;;;;;;;;;;;;;;;;;;10422626;28;20415;-65
2022/07/15 03:01:55;;;;;;;;;;;;;;;;;;10405510;28;19932;-65
2022/07/15 03:06:58;;;;;;;;;;;;;;;;;;10422352;28;19925;-66
2022/07/15 03:12:00;;;;;;;;;;;;;;;;;;10422446;28;19925;-65
2022/07/15 03:17:02;;;;;;;;;;;;;;;;;;10421746;28;19925;-66
2022/07/15 03:22:04;;;;;;;;;;;;;;;;;;10404566;28;19925;-65
2022/07/15 03:27:06;;;;;;;;;;;;;;;;;;10422084;28;19925;-65
2022/07/15 03:32:10;;;;;;;;;;;;;;;;;;10421193;28;19925;-66
2022/07/15 03:37:12;;;;;;;;;;;;;;;;;;10421527;28;19931;-65
2022/07/15 03:42:14;;;;;;;;;;;;;;;;;;10421451;28;19932;-66
2022/07/15 03:47:16;;;;;;;;;;;;;;;;;;10420658;28;20388;-65
2022/07/15 03:52:18;;;;;;;;;;;;;;;;;;10420708;28;19941;-66
2022/07/15 03:57:20;;;;;;;;;;;;;;;;;;10420911;28;19925;-65
2022/07/15 04:02:22;;;;;;;;;;;;;;;;;;10419427;28;19937;-65
2022/07/15 04:07:24;;;;;;;;;;;;;;;;;;10420384;28;19979;-65
2022/07/15 04:12:26;;;;;;;;;;;;;;;;;;10420083;28;19925;-66
2022/07/15 04:17:28;;;;;;;;;;;;;;;;;;10419673;28;19925;-66
2022/07/15 04:22:31;;;;;;;;;;;;;;;;;;10418939;28;19925;-66
2022/07/15 04:27:33;;;;;;;;;;;;;;;;;;10418954;28;20269;-66
2022/07/15 04:32:35;;;;;;;;;;;;;;;;;;10419410;28;19935;-65
2022/07/15 04:37:37;;;;;;;;;;;;;;;;;;10419394;28;19925;-65
2022/07/15 04:42:39;;;;;;;;;;;;;;;;;;10418288;28;19948;-66
2022/07/15 04:47:42;;;;;;;;;;;;;;;;;;10418333;28;20368;-66
2022/07/15 04:52:44;;;;;;;;;;;;;;;;;;10417936;28;19925;-66
2022/07/15 04:57:46;;;;;;;;;;;;;;;;;;10418089;28;19932;-66
2022/07/15 05:02:48;;;;;;;;;;;;;;;;;;10418315;28;19925;-66
2022/07/15 05:07:51;;;;;;;;;;;;;;;;;;10418133;28;20012;-66
2022/07/15 05:12:53;;;;;;;;;;;;;;;;;;10417287;28;19925;-66
2022/07/15 05:17:55;;;;;;;;;;;;;;;;;;10398058;28;19929;-66
2022/07/15 05:22:57;;;;;;;;;;;;;;;;;;10416752;28;19925;-66
2022/07/15 05:27:59;;;;;;;;;;;;;;;;;;10416887;28;19925;-66
2022/07/15 05:33:01;;;;;;;;;;;;;;;;;;10416408;28;20277;-66
2022/07/15 05:38:03;;;;;;;;;;;;;;;;;;10417041;28;19932;-66
2022/07/15 05:43:06;;;;;;;;;;;;;;;;;;10416856;28;19936;-65
2022/07/15 05:48:08;;;;;;;;;;;;;;;;;;10415971;28;20288;-66
2022/07/15 05:53:10;;;;;;;;;;;;;;;;;;10416489;28;19932;-66
2022/07/15 05:58:12;;;;;;;;;;;;;;;;;;10416792;28;19940;-66
2022/07/15 06:03:14;;;;;;;;;;;;;;;;;;10417069;28;19925;-66
2022/07/15 06:08:16;;;;;;;;;;;;;;;;;;10415535;28;19932;-66
2022/07/15 06:13:20;;;;;;;;;;;;;;;;;;10415149;28;19925;-66
2022/07/15 06:18:22;;;;;;;;;;;;;;;;;;10415972;28;19932;-66
2022/07/15 06:23:24;;;;;;;;;;;;;;;;;;10418678;28;20008;-66
2022/07/15 06:28:26;;;;;;;;;;;;;;;;;;10423733;28;20383;-66
2022/07/15 06:33:28;;;;;;;;;;;;;;;;;;10424064;28;19940;-66
2022/07/15 06:38:30;;;;;;;;;;;;;;;;;;10423951;28;19925;-66
2022/07/15 06:43:33;;;;;;;;;;;;;;;;;;10423148;28;19931;-66
2022/07/15 06:48:35;;;;;;;;;;;;;;;;;;10423519;28;20386;-66
2022/07/15 06:53:37;;;;;;;;;;;;;;;;;;10422709;28;20391;-66
2022/07/15 06:58:39;;;;;;;;;;;;;;;;;;10423241;28;19925;-66
2022/07/15 07:03:41;;;;;;;;;;;;;;;;;;10423034;28;19925;-66
2022/07/15 07:09:01;;;;;;;;;;;;;;;;;;10422175;28;20331;-66
2022/07/15 07:14:03;;;;;;;;;;;;;;;;;;10422063;28;19925;-65
2022/07/15 07:19:05;;;;;;;;;;;;;;;;;;10422445;28;19936;-66
2022/07/15 07:24:07;;;;;;;;;;;;;;;;;;10422251;28;19925;-66
2022/07/15 07:29:12;;;;;;;;;;;;;;;;;;10411281;22;19932;-72
2022/07/15 07:34:14;;;;;;;;;;;;;;;;;;10421737;28;19932;-72
2022/07/15 07:39:16;;;;;;;;;;;;;;;;;;10404181;28;19929;-72
2022/07/15 07:44:18;;;;;;;;;;;;;;;;;;10421438;28;19925;-72
2022/07/15 07:49:21;;;;;;;;;;;;;;;;;;10421323;28;19925;-72
2022/07/15 07:54:38;;;;;;;;;;;;;;;;;;10420441;28;20277;-72
2022/07/15 07:59:40;;;;;;;;;;;;;;;;;;10420859;28;19925;-72
2022/07/15 08:04:43;;;;;;;;;;;;;;;;;;10420103;28;19926;-72
2022/07/15 08:09:45;;;;;;;;;;;;;;;;;;10419883;28;20288;-73
2022/07/15 08:14:49;;;;;;;;;;;;;;;;;;10419497;28;20376;-73
2022/07/15 08:19:52;;;;;;;;;;;;;;;;;;10420031;28;19925;-72
2022/07/15 08:24:54;;;;;;;;;;;;;;;;;;10419223;28;19925;-73
2022/07/15 08:29:56;;;;;;;;;;;;;;;;;;10419231;28;19929;-73
2022/07/15 08:34:58;;;;;;;;;;;;;;;;;;10418737;28;19925;-73
2022/07/15 08:40:04;;;;;;;;;;;;;;;;;;10419971;28;20004;-73
2022/07/15 08:45:06;;;;;;;;;;;;;;;;;;10400950;28;19932;-73
2022/07/15 08:50:08;;;;;;;;;;;;;;;;;;10418197;28;19925;-73
2022/07/15 08:55:10;;;;;;;;;;;;;;;;;;10418114;28;19932;-73
2022/07/15 09:00:12;;;;;;;;;;;;;;;;;;10418484;28;19925;-73
2022/07/15 09:05:15;;;;;;;;;;;;;;;;;;10418260;28;19925;-73
2022/07/15 09:10:17;;;;;;;;;;;;;;;;;;10418082;28;19929;-73
2022/07/15 09:15:19;;;;;;;;;;;;;;;;;;10417055;28;20372;-74
2022/07/15 09:20:21;;;;;;;;;;;;;;;;;;10399500;28;19929;-73
2022/07/15 09:25:24;;;;;;;;;;;;;;;;;;10417500;28;19929;-73
2022/07/15 09:36:02;;;;;;;;;;;;;;;;;;10416483;28;20299;-74
2022/07/15 09:41:04;;;;;;;;;;;;;;;;;;10416382;28;20284;-73
2022/07/15 09:46:06;;;;;;;;;;;;;;;;;;10416302;28;19925;-74
2022/07/15 09:51:09;;;;;;;;;;;;;;;;;;10416868;28;19975;-74
2022/07/15 09:56:11;;;;;;;;;;;;;;;;;;10416184;28;19932;-74
2022/07/15 10:01:13;;;;;;;;;;;;;;;;;;10415839;28;19925;-74
2022/07/15 10:06:16;;;;;;;;;;;;;;;;;;10415618;28;20368;-74
2022/07/15 10:11:18;;;;;;;;;;;;;;;;;;10398354;28;19992;-74
2022/07/15 10:16:20;;;;;;;;;;;;;;;;;;10415884;28;19925;-74
2022/07/15 10:21:23;;;;;;;;;;;;;;;;;;10398475;28;19925;-74
2022/07/15 10:26:26;;;;;;;;;;;;;;;;;;10415209;28;19932;-73
2022/07/15 10:31:30;;;;;;;;;;;;;;;;;;10415296;28;19971;-74
2022/07/15 10:36:33;;;;;;;;;;;;;;;;;;10415542;28;19925;-74
2022/07/15 10:41:35;;;;;;;;;;;;;;;;;;10414883;28;20373;-74
2022/07/15 10:46:37;;;;;;;;;;;;;;;;;;10414694;28;19936;-74
2022/07/15 10:51:40;;;;;;;;;;;;;;;;;;10415295;28;19925;-75
2022/07/15 10:56:42;;;;;;;;;;;;;;;;;;10414480;28;19925;-74
2022/07/15 11:01:44;;;;;;;;;;;;;;;;;;10415085;28;19932;-75
2022/07/15 11:06:46;;;;;;;;;;;;;;;;;;10414398;28;19925;-74
2022/07/15 11:11:48;;;;;;;;;;;;;;;;;;10421169;28;19925;-74
2022/07/15 11:16:50;;;;;;;;;;;;;;;;;;10404194;28;19925;-75
2022/07/15 11:21:53;;;;;;;;;;;;;;;;;;10422511;28;19971;-74
2022/07/15 11:26:55;;;;;;;;;;;;;;;;;;10421996;28;19925;-74
2022/07/15 11:31:57;;;;;;;;;;;;;;;;;;10421184;28;19929;-75
2022/07/15 11:36:59;;;;;;;;;;;;;;;;;;10421607;28;19932;-75
2022/07/15 11:47:22;;;;;;;;;;;;;;;;;;10420547;28;20438;-75
2022/07/15 11:52:26;;;;;;;;;;;;;;;;;;10420365;28;20416;-75
2022/07/15 11:57:28;;;;;;;;;;;;;;;;;;10403338;28;19933;-75
2022/07/15 12:02:30;;;;;;;;;;;;;;;;;;10420750;28;19929;-75
2022/07/15 12:07:32;;;;;;;;;;;;;;;;;;10420548;28;19929;-77
2022/07/15 12:12:34;;;;;;;;;;;;;;;;;;10419681;28;19931;-75
2022/07/15 12:17:36;;;;;;;;;;;;;;;;;;10402004;28;20414;-76
2022/07/15 12:22:39;;;;;;;;;;;;;;;;;;10419006;28;19931;-75
2022/07/15 12:27:41;;;;;;;;;;;;;;;;;;10419526;28;19932;-76
2022/07/15 12:32:43;;;;;;;;;;;;;;;;;;10419506;28;19929;-76
2022/07/15 12:37:45;;;;;;;;;;;;;;;;;;10419380;28;19925;-76
2022/07/15 12:42:48;;;;;;;;;;;;;;;;;;10419120;28;19936;-75
2022/07/15 12:47:50;;;;;;;;;;;;;;;;;;10418352;28;19925;-75
2022/07/15 12:52:52;;;;;;;;;;;;;;;;;;10419176;28;19929;-75
2022/07/15 12:57:54;;;;;;;;;;;;;;;;;;10417931;28;20262;-74
2022/07/15 13:02:59;;;;;;;;;;;;;;;;;;10417877;28;19925;-75
2022/07/15 13:08:01;;;;;;;;;;;;;;;;;;10417569;28;19971;-75
2022/07/15 13:13:03;;;;;;;;;;;;;;;;;;10417660;28;20288;-75
2022/07/15 13:18:05;;;;;;;;;;;;;;;;;;10417838;28;19925;-75
2022/07/15 13:23:07;;;;;;;;;;;;;;;;;;10417579;28;19929;-75
2022/07/15 13:28:10;;;;;;;;;;;;;;;;;;10417089;28;19951;-75
2022/07/15 13:33:12;;;;;;;;;;;;;;;;;;10416530;28;20015;-75
2022/07/15 13:38:14;;;;;;;;;;;;;;;;;;10417071;28;19931;-75
2022/07/15 13:43:18;;;;;;;;;;;;;;;;;;10399354;28;19925;-74
2022/07/15 13:48:20;;;;;;;;;;;;;;;;;;10416639;28;19931;-74
2022/07/15 13:53:22;;;;;;;;;;;;;;;;;;10416272;28;19925;-75
2022/07/15 13:58:24;;;;;;;;;;;;;;;;;;10416458;28;19925;-75
2022/07/15 14:03:27;;;;;;;;;;;;;;;;;;10398783;28;19932;-75
2022/07/15 14:08:29;;;;;;;;;;;;;;;;;;10416119;28;19925;-75
2022/07/15 14:13:31;;;;;;;;;;;;;;;;;;10415316;28;20380;-75
2022/07/15 14:18:49;;;;;;;;;;;;;;;;;;10415862;28;19929;-75
2022/07/15 14:23:52;;;;;;;;;;;;;;;;;;10415833;28;19925;-74
2022/07/15 14:28:54;;;;;;;;;;;;;;;;;;10397316;28;20309;-74
2022/07/15 14:33:56;;;;;;;;;;;;;;;;;;10415607;28;19925;-74
2022/07/15 14:38:59;;;;;;;;;;;;;;;;;;10415521;28;19925;-74
2022/07/15 14:44:01;;;;;;;;;;;;;;;;;;10417406;28;19925;-74
2022/07/15 14:49:03;;;;;;;;;;;;;;;;;;10423591;28;19925;-74
2022/07/15 14:54:05;;;;;;;;;;;;;;;;;;10422634;28;19925;-74
2022/07/15 14:59:07;;;;;;;;;;;;;;;;;;10422649;28;20272;-75
2022/07/15 15:04:09;;;;;;;;;;;;;;;;;;10423065;28;19932;-75
2022/07/15 15:09:11;;;;;;;;;;;;;;;;;;10422175;28;20376;-75
2022/07/15 15:14:13;;;;;;;;;;;;;;;;;;10421956;28;20277;-74
2022/07/15 15:19:16;;;;;;;;;;;;;;;;;;10404312;28;19931;-75
2022/07/15 15:24:18;;;;;;;;;;;;;;;;;;10421624;28;20316;-74
2022/07/15 15:29:24;;;;;;;;;;;;;;;;;;10405085;28;19925;-75
2022/07/15 15:34:29;;;;;;;;;;;;;;;;;;10421809;28;19967;-75
2022/07/15 15:39:31;;;;;;;;;;;;;;;;;;10421135;28;19929;-75
2022/07/15 15:44:33;;;;;;;;;;;;;;;;;;10421408;28;19925;-74
2022/07/15 15:49:36;;;;;;;;;;;;;;;;;;10421317;28;19932;-74
2022/07/15 15:54:38;;;;;;;;;;;;;;;;;;10419950;28;19929;-74
2022/07/15 15:59:40;;;;;;;;;;;;;;;;;;10420713;28;19932;-74
2022/07/15 16:04:42;;;;;;;;;;;;;;;;;;10420709;28;19925;-74
2022/07/15 16:10:04;;;;;;;;;;;;;;;;;;10420522;28;19929;-74
2022/07/15 16:15:06;;;;;;;;;;;;;;;;;;10420257;28;19931;-74
2022/07/15 16:20:08;;;;;;;;;;;;;;;;;;10419576;28;20372;-74
2022/07/15 16:25:10;;;;;;;;;;;;;;;;;;10402401;28;19925;-74
2022/07/15 16:30:12;;;;;;;;;;;;;;;;;;10419248;28;19925;-74
2022/07/15 16:35:21;;;;;;;;;;;;;;;;;;10419507;28;19971;-74
2022/07/15 16:40:24;;;;;;;;;;;;;;;;;;10401887;28;19925;-74
2022/07/15 16:45:26;;;;;;;;;;;;;;;;;;10419775;28;19925;-74
2022/07/15 16:50:28;;;;;;;;;;;;;;;;;;10418537;28;19935;-74
2022/07/15 16:55:30;;;;;;;;;;;;;;;;;;10419268;28;19932;-74
2022/07/15 17:00:32;;;;;;;;;;;;;;;;;;10418638;28;19925;-74
2022/07/15 17:05:34;;;;;;;;;;;;;;;;;;10418377;28;19929;-74
2022/07/15 17:10:38;;;;;;;;;;;;;;;;;;10417097;28;20322;-74
2022/07/15 17:15:40;;;;;;;;;;;;;;;;;;10417254;28;19924;-74
2022/07/15 17:20:42;;;;;;;;;;;;;;;;;;10417224;28;19995;-74
2022/07/15 17:25:45;;;;;;;;;;;;;;;;;;10417043;28;20287;-74
2022/07/15 17:30:47;;;;;;;;;;;;;;;;;;10416648;28;20397;-74
2022/07/15 17:35:49;;;;;;;;;;;;;;;;;;10416607;28;20376;-74
2022/07/15 17:40:51;;;;;;;;;;;;;;;;;;10399612;28;19936;-74
2022/07/15 17:45:53;;;;;;;;;;;;;;;;;;10416963;28;19929;-73
2022/07/15 17:50:55;;;;;;;;;;;;;;;;;;10416800;28;19933;-74
2022/07/15 17:55:57;;;;;;;;;;;;;;;;;;10417226;28;19931;-74
2022/07/15 18:01:01;;;;;;;;;;;;;;;;;;10415739;28;20309;-74
2022/07/15 18:06:03;;;;;;;;;;;;;;;;;;10415475;28;19925;-73
2022/07/15 18:11:05;;;;;;;;;;;;;;;;;;10416228;28;19925;-73
2022/07/15 18:16:08;;;;;;;;;;;;;;;;;;10416085;28;19934;-74
2022/07/15 18:21:10;;;;;;;;;;;;;;;;;;10414406;28;19932;-73
2022/07/15 18:26:12;;;;;;;;;;;;;;;;;;10415300;28;19925;-73
2022/07/15 18:31:17;;;;;;;;;;;;;;;;;;10414936;28;19925;-73
2022/07/15 18:36:19;;;;;;;;;;;;;;;;;;10413903;28;19925;-73
2022/07/15 18:41:23;;;;;;;;;;;;;;;;;;10398195;28;19925;-73
2022/07/15 18:46:26;;;;;;;;;;;;;;;;;;10374750;28;19933;-73
2022/07/15 18:51:28;;;;;;;;;;;;;;;;;;10374031;28;20012;-73
2022/07/15 18:56:30;;;;;;;;;;;;;;;;;;10356416;28;19926;-73
2022/07/15 19:01:32;;;;;;;;;;;;;;;;;;10373882;28;19932;-73
2022/07/15 19:06:34;;;;;;;;;;;;;;;;;;10374345;28;19926;-73
2022/07/15 19:11:36;;;;;;;;;;;;;;;;;;10405149;28;19933;-73
2022/07/15 19:16:38;;;;;;;;;;;;;;;;;;10414938;28;19935;-73
2022/07/15 19:21:41;;;;;;;;;;;;;;;;;;10414915;28;19925;-73
2022/07/15 19:26:43;;;;;;;;;;;;;;;;;;10414544;28;19925;-73
2022/07/15 19:31:45;;;;;;;;;;;;;;;;;;10417752;28;20028;-72
2022/07/15 19:36:47;;;;;;;;;;;;;;;;;;10421929;28;19925;-73
2022/07/15 19:41:50;;;;;;;;;;;;;;;;;;10421770;28;19932;-72
2022/07/15 19:46:52;;;;;;;;;;;;;;;;;;10464420;22;19931;-65
2022/07/15 19:51:54;;;;;;;;;;;;;;;;;;10462700;28;19925;-65
2022/07/15 19:56:56;;;;;;;;;;;;;;;;;;10462437;28;19925;-65
2022/07/15 20:01:59;;;;;;;;;;;;;;;;;;10461979;28;19932;-65
2022/07/15 20:07:01;;;;;;;;;;;;;;;;;;10460623;28;19971;-65
2022/07/15 20:12:03;;;;;;;;;;;;;;;;;;10461314;28;19982;-65
2022/07/15 20:17:05;;;;;;;;;;;;;;;;;;10461032;28;20372;-65
2022/07/15 20:22:07;;;;;;;;;;;;;;;;;;10461235;28;19925;-65
2022/07/15 20:27:09;;;;;;;;;;;;;;;;;;10461021;28;19929;-65
2022/07/15 20:32:12;;;;;;;;;;;;;;;;;;10460553;28;20371;-65
2022/07/15 20:37:14;;;;;;;;;;;;;;;;;;10460582;28;19933;-65
2022/07/15 20:42:16;;;;;;;;;;;;;;;;;;10459374;28;19925;-65
2022/07/15 20:47:18;;;;;;;;;;;;;;;;;;10459849;28;19925;-65
2022/07/15 20:52:20;;;;;;;;;;;;;;;;;;10459955;28;19925;-65
2022/07/15 20:57:22;;;;;;;;;;;;;;;;;;10459865;28;19925;-65
2022/07/15 21:02:24;;;;;;;;;;;;;;;;;;10458772;28;19925;-65
2022/07/15 21:07:27;;;;;;;;;;;;;;;;;;10459683;28;19931;-65
2022/07/15 21:12:29;;;;;;;;;;;;;;;;;;10459387;28;19924;-65
2022/07/15 21:17:31;;;;;;;;;;;;;;;;;;10458453;28;19962;-65
2022/07/15 21:22:33;;;;;;;;;;;;;;;;;;10457978;28;20016;-65
2022/07/15 21:27:35;;;;;;;;;;;;;;;;;;10456033;28;19925;-65
2022/07/15 21:32:37;;;;;;;;;;;;;;;;;;10458418;28;19925;-65
2022/07/15 21:37:39;;;;;;;;;;;;;;;;;;10457785;28;20367;-65
2022/07/15 21:42:42;;;;;;;;;;;;;;;;;;10458001;28;19925;-65
2022/07/15 21:47:44;;;;;;;;;;;;;;;;;;10457734;28;19924;-65
2022/07/15 21:52:46;;;;;;;;;;;;;;;;;;10457827;28;19925;-65
2022/07/15 21:57:48;;;;;;;;;;;;;;;;;;10457821;28;19925;-65
2022/07/15 22:02:51;;;;;;;;;;;;;;;;;;10457569;28;19932;-65
2022/07/15 22:07:53;;;;;;;;;;;;;;;;;;10457606;28;19951;-65
2022/07/15 22:12:55;;;;;;;;;;;;;;;;;;10457257;28;19925;-65
2022/07/15 22:17:58;;;;;;;;;;;;;;;;;;10457108;28;19928;-65
2022/07/15 22:23:00;;;;;;;;;;;;;;;;;;10456386;28;20329;-65
2022/07/15 22:28:02;;;;;;;;;;;;;;;;;;10457166;28;19925;-65
2022/07/15 22:33:04;;;;;;;;;;;;;;;;;;10457058;28;19925;-65
2022/07/15 22:38:06;;;;;;;;;;;;;;;;;;10456868;28;19925;-65
2022/07/15 22:43:08;;;;;;;;;;;;;;;;;;10456453;28;19928;-65
2022/07/15 22:48:10;;;;;;;;;;;;;;;;;;10455984;28;20284;-65
2022/07/15 22:53:12;;;;;;;;;;;;;;;;;;10456120;28;19928;-65
2022/07/15 22:58:14;;;;;;;;;;;;;;;;;;10455896;28;20368;-65
2022/07/15 23:03:16;;;;;;;;;;;;;;;;;;10456257;28;19925;-65
2022/07/15 23:08:20;;;;;;;;;;;;;;;;;;10463051;28;20025;-65
2022/07/15 23:13:22;;;;;;;;;;;;;;;;;;10464200;28;19924;-65
2022/07/15 23:18:24;;;;;;;;;;;;;;;;;;10463497;28;19979;-65
2022/07/15 23:23:27;;;;;;;;;;;;;;;;;;10463771;28;19925;-65
2022/07/15 23:28:29;;;;;;;;;;;;;;;;;;10463059;28;19938;-65
2022/07/15 23:33:31;;;;;;;;;;;;;;;;;;10462805;28;20367;-65
2022/07/15 23:38:33;;;;;;;;;;;;;;;;;;10463026;28;19929;-65
2022/07/15 23:43:35;;;;;;;;;;;;;;;;;;10462281;28;20271;-65
2022/07/15 23:48:37;;;;;;;;;;;;;;;;;;10461983;28;20375;-65
2022/07/15 23:53:39;;;;;;;;;;;;;;;;;;10462054;28;20387;-65
2022/07/15 23:58:44;;;;;;;;;;;;;;;;;;10462190;28;19968;-64
